sensor_id;sensor_type;location;lat;lon;timestamp;temperature;humidity
42227;DHT22;27892;52.378;13.122;2022-09-30T00:01:24;9.30;64.30
42227;DHT22;27892;52.378;13.122;2022-09-30T00:03:54;9.30;64.50
42227;DHT22;27892;52.378;13.122;2022-09-30T00:06:20;9.40;64.60
42227;DHT22;27892;52.378;13.122;2022-09-30T00:08:46;9.30;64.50
42227;DHT22;27892;52.378;13.122;2022-09-30T00:11:23;9.30;64.30
42227;DHT22;27892;52.378;13.122;2022-09-30T00:13:51;9.30;64.50
42227;DHT22;27892;52.378;13.122;2022-09-30T00:16:19;9.30;64.60
42227;DHT22;27892;52.378;13.122;2022-09-30T00:18:45;9.30;64.40
42227;DHT22;27892;52.378;13.122;2022-09-30T00:21:12;9.30;64.20
42227;DHT22;27892;52.378;13.122;2022-09-30T00:23:38;9.20;64.20
42227;DHT22;27892;52.378;13.122;2022-09-30T00:26:16;9.20;63.70
42227;DHT22;27892;52.378;13.122;2022-09-30T00:28:42;9.10;64.00
42227;DHT22;27892;52.378;13.122;2022-09-30T00:31:14;9.00;64.40
42227;DHT22;27892;52.378;13.122;2022-09-30T00:33:41;9.00;64.80
42227;DHT22;27892;52.378;13.122;2022-09-30T00:36:10;9.00;64.80
42227;DHT22;27892;52.378;13.122;2022-09-30T00:38:35;9.10;64.70
42227;DHT22;27892;52.378;13.122;2022-09-30T00:41:02;9.10;64.60
42227;DHT22;27892;52.378;13.122;2022-09-30T00:43:46;9.10;64.40
42227;DHT22;27892;52.378;13.122;2022-09-30T00:49:13;8.90;64.30
42227;DHT22;27892;52.378;13.122;2022-09-30T00:51:47;8.90;64.80
42227;DHT22;27892;52.378;13.122;2022-09-30T00:54:18;8.90;64.70
42227;DHT22;27892;52.378;13.122;2022-09-30T00:56:54;8.90;64.50
42227;DHT22;27892;52.378;13.122;2022-09-30T00:59:26;8.90;64.60
42227;DHT22;27892;52.378;13.122;2022-09-30T01:01:54;8.90;64.40
42227;DHT22;27892;52.378;13.122;2022-09-30T01:04:21;8.90;64.90
42227;DHT22;27892;52.378;13.122;2022-09-30T01:06:49;8.90;64.40
42227;DHT22;27892;52.378;13.122;2022-09-30T01:09:15;8.90;64.30
42227;DHT22;27892;52.378;13.122;2022-09-30T01:11:41;8.90;64.10
42227;DHT22;27892;52.378;13.122;2022-09-30T01:14:20;8.80;64.20
42227;DHT22;27892;52.378;13.122;2022-09-30T01:17:00;8.70;63.80
42227;DHT22;27892;52.378;13.122;2022-09-30T01:25:52;8.60;64.80
42227;DHT22;27892;52.378;13.122;2022-09-30T01:28:50;8.60;64.50
42227;DHT22;27892;52.378;13.122;2022-09-30T01:31:39;8.60;64.40
42227;DHT22;27892;52.378;13.122;2022-09-30T01:34:33;8.60;64.60
42227;DHT22;27892;52.378;13.122;2022-09-30T01:37:18;8.50;64.30
42227;DHT22;27892;52.378;13.122;2022-09-30T01:40:02;8.40;64.40
42227;DHT22;27892;52.378;13.122;2022-09-30T01:43:25;8.40;64.50
42227;DHT22;27892;52.378;13.122;2022-09-30T01:46:04;8.40;64.60
42227;DHT22;27892;52.378;13.122;2022-09-30T01:48:40;8.30;64.80
42227;DHT22;27892;52.378;13.122;2022-09-30T01:51:37;8.30;65.00
42227;DHT22;27892;52.378;13.122;2022-09-30T01:54:21;8.30;65.10
42227;DHT22;27892;52.378;13.122;2022-09-30T01:56:58;8.40;65.10
42227;DHT22;27892;52.378;13.122;2022-09-30T01:59:35;8.40;64.80
42227;DHT22;27892;52.378;13.122;2022-09-30T02:02:17;8.50;64.70
42227;DHT22;27892;52.378;13.122;2022-09-30T02:04:58;8.50;64.60
42227;DHT22;27892;52.378;13.122;2022-09-30T02:07:45;8.50;64.40
42227;DHT22;27892;52.378;13.122;2022-09-30T02:10:24;8.50;64.30
42227;DHT22;27892;52.378;13.122;2022-09-30T02:13:19;8.40;64.30
42227;DHT22;27892;52.378;13.122;2022-09-30T02:15:53;8.40;64.50
42227;DHT22;27892;52.378;13.122;2022-09-30T02:18:36;8.40;64.40
42227;DHT22;27892;52.378;13.122;2022-09-30T02:21:04;8.50;64.20
42227;DHT22;27892;52.378;13.122;2022-09-30T02:23:33;8.30;63.70
42227;DHT22;27892;52.378;13.122;2022-09-30T02:26:07;8.30;63.80
42227;DHT22;27892;52.378;13.122;2022-09-30T02:28:38;8.20;64.10
42227;DHT22;27892;52.378;13.122;2022-09-30T02:31:25;8.20;64.40
42227;DHT22;27892;52.378;13.122;2022-09-30T02:33:56;8.20;64.40
42227;DHT22;27892;52.378;13.122;2022-09-30T02:36:30;8.30;64.00
42227;DHT22;27892;52.378;13.122;2022-09-30T02:39:12;8.20;64.10
42227;DHT22;27892;52.378;13.122;2022-09-30T02:41:46;8.20;64.30
42227;DHT22;27892;52.378;13.122;2022-09-30T02:44:14;8.20;64.00
42227;DHT22;27892;52.378;13.122;2022-09-30T02:47:09;8.10;64.30
42227;DHT22;27892;52.378;13.122;2022-09-30T02:52:37;8.20;64.40
42227;DHT22;27892;52.378;13.122;2022-09-30T02:55:18;8.20;64.40
42227;DHT22;27892;52.378;13.122;2022-09-30T02:58:10;8.10;64.20
42227;DHT22;27892;52.378;13.122;2022-09-30T03:00:37;8.10;64.50
42227;DHT22;27892;52.378;13.122;2022-09-30T03:03:32;8.10;64.40
42227;DHT22;27892;52.378;13.122;2022-09-30T03:05:57;8.10;64.30
42227;DHT22;27892;52.378;13.122;2022-09-30T03:08:23;8.10;64.00
42227;DHT22;27892;52.378;13.122;2022-09-30T03:10:50;8.00;64.00
42227;DHT22;27892;52.378;13.122;2022-09-30T03:24:57;7.90;64.80
42227;DHT22;27892;52.378;13.122;2022-09-30T03:30:23;8.00;64.40
42227;DHT22;27892;52.378;13.122;2022-09-30T03:33:23;7.90;64.40
42227;DHT22;27892;52.378;13.122;2022-09-30T03:38:51;8.00;64.30
42227;DHT22;27892;52.378;13.122;2022-09-30T03:41:43;8.00;64.10
42227;DHT22;27892;52.378;13.122;2022-09-30T03:44:42;7.80;63.80
42227;DHT22;27892;52.378;13.122;2022-09-30T03:47:13;7.80;64.40
42227;DHT22;27892;52.378;13.122;2022-09-30T03:49:47;7.70;64.30
42227;DHT22;27892;52.378;13.122;2022-09-30T03:52:14;7.70;64.80
42227;DHT22;27892;52.378;13.122;2022-09-30T03:54:49;7.80;64.80
42227;DHT22;27892;52.378;13.122;2022-09-30T03:57:16;7.80;64.50
42227;DHT22;27892;52.378;13.122;2022-09-30T03:59:41;7.90;64.30
42227;DHT22;27892;52.378;13.122;2022-09-30T04:02:08;7.90;64.20
42227;DHT22;27892;52.378;13.122;2022-09-30T04:04:38;7.90;64.00
42227;DHT22;27892;52.378;13.122;2022-09-30T04:07:05;7.80;63.90
42227;DHT22;27892;52.378;13.122;2022-09-30T04:09:31;7.80;64.40
42227;DHT22;27892;52.378;13.122;2022-09-30T04:11:56;7.80;64.40
42227;DHT22;27892;52.378;13.122;2022-09-30T04:14:22;7.90;64.30
42227;DHT22;27892;52.378;13.122;2022-09-30T04:16:48;7.90;64.00
42227;DHT22;27892;52.378;13.122;2022-09-30T04:19:13;7.80;63.70
42227;DHT22;27892;52.378;13.122;2022-09-30T04:21:39;7.70;63.60
42227;DHT22;27892;52.378;13.122;2022-09-30T04:24:04;7.60;64.10
42227;DHT22;27892;52.378;13.122;2022-09-30T04:26:30;7.40;64.40
42227;DHT22;27892;52.378;13.122;2022-09-30T04:28:56;7.40;64.80
42227;DHT22;27892;52.378;13.122;2022-09-30T04:31:23;7.40;65.20
42227;DHT22;27892;52.378;13.122;2022-09-30T04:33:49;7.50;65.30
42227;DHT22;27892;52.378;13.122;2022-09-30T04:36:18;7.60;65.20
42227;DHT22;27892;52.378;13.122;2022-09-30T04:38:43;7.60;64.80
42227;DHT22;27892;52.378;13.122;2022-09-30T04:41:13;7.70;64.80
42227;DHT22;27892;52.378;13.122;2022-09-30T04:43:46;7.70;64.90
42227;DHT22;27892;52.378;13.122;2022-09-30T04:46:16;7.70;64.80
42227;DHT22;27892;52.378;13.122;2022-09-30T04:48:43;7.70;64.60
42227;DHT22;27892;52.378;13.122;2022-09-30T04:51:14;7.70;64.60
42227;DHT22;27892;52.378;13.122;2022-09-30T04:53:40;7.80;64.70
42227;DHT22;27892;52.378;13.122;2022-09-30T04:56:07;7.80;64.60
42227;DHT22;27892;52.378;13.122;2022-09-30T04:58:33;7.80;64.60
42227;DHT22;27892;52.378;13.122;2022-09-30T05:01:05;7.80;64.60
42227;DHT22;27892;52.378;13.122;2022-09-30T05:03:32;7.80;64.30
42227;DHT22;27892;52.378;13.122;2022-09-30T05:05:58;7.70;64.20
42227;DHT22;27892;52.378;13.122;2022-09-30T05:08:23;7.70;64.40
42227;DHT22;27892;52.378;13.122;2022-09-30T05:10:53;7.70;64.40
42227;DHT22;27892;52.378;13.122;2022-09-30T05:13:19;7.80;64.40
42227;DHT22;27892;52.378;13.122;2022-09-30T05:15:47;7.70;63.90
42227;DHT22;27892;52.378;13.122;2022-09-30T05:18:13;7.60;63.80
42227;DHT22;27892;52.378;13.122;2022-09-30T05:20:39;7.60;64.40
42227;DHT22;27892;52.378;13.122;2022-09-30T05:23:04;7.60;64.60
42227;DHT22;27892;52.378;13.122;2022-09-30T05:25:30;7.70;64.50
42227;DHT22;27892;52.378;13.122;2022-09-30T05:27:56;7.80;64.60
42227;DHT22;27892;52.378;13.122;2022-09-30T05:30:21;7.80;64.60
42227;DHT22;27892;52.378;13.122;2022-09-30T05:32:47;7.80;64.40
42227;DHT22;27892;52.378;13.122;2022-09-30T05:35:13;7.80;64.20
42227;DHT22;27892;52.378;13.122;2022-09-30T05:37:39;7.80;64.40
42227;DHT22;27892;52.378;13.122;2022-09-30T05:40:06;7.80;64.50
42227;DHT22;27892;52.378;13.122;2022-09-30T05:42:32;7.80;64.30
42227;DHT22;27892;52.378;13.122;2022-09-30T05:45:03;7.80;64.60
42227;DHT22;27892;52.378;13.122;2022-09-30T05:47:29;7.90;64.60
42227;DHT22;27892;52.378;13.122;2022-09-30T05:49:55;8.00;64.80
42227;DHT22;27892;52.378;13.122;2022-09-30T05:52:20;8.10;64.80
42227;DHT22;27892;52.378;13.122;2022-09-30T05:54:46;8.20;64.70
42227;DHT22;27892;52.378;13.122;2022-09-30T05:57:12;8.30;64.60
42227;DHT22;27892;52.378;13.122;2022-09-30T05:59:38;8.30;64.20
42227;DHT22;27892;52.378;13.122;2022-09-30T06:02:03;8.30;64.40
42227;DHT22;27892;52.378;13.122;2022-09-30T06:04:29;8.30;64.80
42227;DHT22;27892;52.378;13.122;2022-09-30T06:06:55;8.40;64.80
42227;DHT22;27892;52.378;13.122;2022-09-30T06:09:21;8.50;65.20
42227;DHT22;27892;52.378;13.122;2022-09-30T06:11:47;8.60;65.30
42227;DHT22;27892;52.378;13.122;2022-09-30T06:14:12;8.70;65.20
42227;DHT22;27892;52.378;13.122;2022-09-30T06:16:38;8.90;65.20
42227;DHT22;27892;52.378;13.122;2022-09-30T06:19:04;9.10;65.40
42227;DHT22;27892;52.378;13.122;2022-09-30T06:21:31;9.40;66.00
42227;DHT22;27892;52.378;13.122;2022-09-30T06:23:56;10.70;66.50
42227;DHT22;27892;52.378;13.122;2022-09-30T06:26:22;12.40;63.10
42227;DHT22;27892;52.378;13.122;2022-09-30T06:28:48;13.80;59.90
42227;DHT22;27892;52.378;13.122;2022-09-30T06:31:14;14.60;58.80
42227;DHT22;27892;52.378;13.122;2022-09-30T06:33:40;16.20;56.70
42227;DHT22;27892;52.378;13.122;2022-09-30T06:36:06;17.70;53.10
42227;DHT22;27892;52.378;13.122;2022-09-30T06:38:33;18.90;50.20
42227;DHT22;27892;52.378;13.122;2022-09-30T06:41:03;19.90;48.20
42227;DHT22;27892;52.378;13.122;2022-09-30T06:43:30;20.10;46.00
42227;DHT22;27892;52.378;13.122;2022-09-30T06:45:57;20.10;45.20
42227;DHT22;27892;52.378;13.122;2022-09-30T06:48:22;19.90;44.70
42227;DHT22;27892;52.378;13.122;2022-09-30T06:50:48;19.20;44.00
42227;DHT22;27892;52.378;13.122;2022-09-30T06:53:15;18.10;44.90
42227;DHT22;27892;52.378;13.122;2022-09-30T06:55:41;17.00;45.70
42227;DHT22;27892;52.378;13.122;2022-09-30T06:58:13;16.20;47.50
42227;DHT22;27892;52.378;13.122;2022-09-30T07:00:38;15.70;48.40
42227;DHT22;27892;52.378;13.122;2022-09-30T07:03:04;15.30;49.10
42227;DHT22;27892;52.378;13.122;2022-09-30T07:05:35;14.90;49.70
42227;DHT22;27892;52.378;13.122;2022-09-30T07:08:01;14.50;50.40
42227;DHT22;27892;52.378;13.122;2022-09-30T07:10:26;14.20;51.50
42227;DHT22;27892;52.378;13.122;2022-09-30T07:12:52;14.00;52.00
42227;DHT22;27892;52.378;13.122;2022-09-30T07:15:19;13.70;52.70
42227;DHT22;27892;52.378;13.122;2022-09-30T07:17:54;13.60;53.60
42227;DHT22;27892;52.378;13.122;2022-09-30T07:20:23;13.40;54.30
42227;DHT22;27892;52.378;13.122;2022-09-30T07:22:49;13.40;54.90
42227;DHT22;27892;52.378;13.122;2022-09-30T07:25:15;13.50;55.50
42227;DHT22;27892;52.378;13.122;2022-09-30T07:27:41;13.50;56.00
42227;DHT22;27892;52.378;13.122;2022-09-30T07:30:07;13.60;56.50
42227;DHT22;27892;52.378;13.122;2022-09-30T07:32:33;13.60;56.60
42227;DHT22;27892;52.378;13.122;2022-09-30T07:34:59;13.70;57.10
42227;DHT22;27892;52.378;13.122;2022-09-30T07:37:25;13.80;57.10
42227;DHT22;27892;52.378;13.122;2022-09-30T07:39:51;13.90;57.00
42227;DHT22;27892;52.378;13.122;2022-09-30T07:42:19;14.10;57.80
42227;DHT22;27892;52.378;13.122;2022-09-30T07:44:48;14.20;58.10
42227;DHT22;27892;52.378;13.122;2022-09-30T07:47:16;14.20;57.70
42227;DHT22;27892;52.378;13.122;2022-09-30T07:49:42;14.40;58.70
42227;DHT22;27892;52.378;13.122;2022-09-30T07:52:13;14.80;59.10
42227;DHT22;27892;52.378;13.122;2022-09-30T07:54:40;15.20;58.10
42227;DHT22;27892;52.378;13.122;2022-09-30T07:57:06;15.50;57.10
42227;DHT22;27892;52.378;13.122;2022-09-30T07:59:35;16.00;57.50
42227;DHT22;27892;52.378;13.122;2022-09-30T08:02:02;16.50;57.10
42227;DHT22;27892;52.378;13.122;2022-09-30T08:04:28;17.20;56.80
42227;DHT22;27892;52.378;13.122;2022-09-30T08:06:56;17.80;55.60
42227;DHT22;27892;52.378;13.122;2022-09-30T08:09:24;18.60;54.00
42227;DHT22;27892;52.378;13.122;2022-09-30T08:11:50;19.60;52.50
42227;DHT22;27892;52.378;13.122;2022-09-30T08:14:18;20.50;50.30
42227;DHT22;27892;52.378;13.122;2022-09-30T08:16:45;20.90;48.40
42227;DHT22;27892;52.378;13.122;2022-09-30T08:19:20;21.60;47.40
42227;DHT22;27892;52.378;13.122;2022-09-30T08:21:46;22.30;46.20
42227;DHT22;27892;52.378;13.122;2022-09-30T08:24:12;22.50;44.70
42227;DHT22;27892;52.378;13.122;2022-09-30T08:26:39;22.60;43.40
42227;DHT22;27892;52.378;13.122;2022-09-30T08:29:05;22.90;42.70
42227;DHT22;27892;52.378;13.122;2022-09-30T08:31:31;22.90;42.60
42227;DHT22;27892;52.378;13.122;2022-09-30T08:34:00;23.00;42.00
42227;DHT22;27892;52.378;13.122;2022-09-30T08:36:28;23.20;41.70
42227;DHT22;27892;52.378;13.122;2022-09-30T08:38:54;24.00;41.20
42227;DHT22;27892;52.378;13.122;2022-09-30T08:42:02;24.00;40.10
42227;DHT22;27892;52.378;13.122;2022-09-30T08:52:47;22.90;43.00
42227;DHT22;27892;52.378;13.122;2022-09-30T08:55:41;22.70;42.50
42227;DHT22;27892;52.378;13.122;2022-09-30T08:58:22;22.60;42.70
42227;DHT22;27892;52.378;13.122;2022-09-30T09:00:51;22.50;42.70
42227;DHT22;27892;52.378;13.122;2022-09-30T09:03:19;22.40;43.20
42227;DHT22;27892;52.378;13.122;2022-09-30T09:06:07;22.00;43.40
42227;DHT22;27892;52.378;13.122;2022-09-30T09:09:02;21.90;44.50
42227;DHT22;27892;52.378;13.122;2022-09-30T09:17:01;21.40;44.70
42227;DHT22;27892;52.378;13.122;2022-09-30T09:19:36;21.30;45.70
42227;DHT22;27892;52.378;13.122;2022-09-30T09:22:03;21.20;45.60
42227;DHT22;27892;52.378;13.122;2022-09-30T09:24:36;21.00;46.10
42227;DHT22;27892;52.378;13.122;2022-09-30T09:27:25;21.00;46.50
42227;DHT22;27892;52.378;13.122;2022-09-30T09:30:02;20.80;45.70
42227;DHT22;27892;52.378;13.122;2022-09-30T09:32:30;20.50;46.60
42227;DHT22;27892;52.378;13.122;2022-09-30T09:35:26;20.30;47.30
42227;DHT22;27892;52.378;13.122;2022-09-30T09:37:54;20.20;47.40
42227;DHT22;27892;52.378;13.122;2022-09-30T09:40:56;19.90;47.00
42227;DHT22;27892;52.378;13.122;2022-09-30T09:43:43;19.70;47.90
42227;DHT22;27892;52.378;13.122;2022-09-30T09:46:19;19.40;48.30
42227;DHT22;27892;52.378;13.122;2022-09-30T09:48:46;19.30;49.00
42227;DHT22;27892;52.378;13.122;2022-09-30T09:51:23;19.20;49.60
42227;DHT22;27892;52.378;13.122;2022-09-30T09:53:52;19.20;49.70
42227;DHT22;27892;52.378;13.122;2022-09-30T09:56:26;19.30;49.70
42227;DHT22;27892;52.378;13.122;2022-09-30T09:59:13;19.30;49.30
42227;DHT22;27892;52.378;13.122;2022-09-30T10:01:46;19.40;49.20
42227;DHT22;27892;52.378;13.122;2022-09-30T10:09:34;19.40;49.80
42227;DHT22;27892;52.378;13.122;2022-09-30T10:14:56;19.70;49.20
42227;DHT22;27892;52.378;13.122;2022-09-30T10:17:34;19.90;49.10
42227;DHT22;27892;52.378;13.122;2022-09-30T10:20:16;20.20;48.50
42227;DHT22;27892;52.378;13.122;2022-09-30T10:22:43;20.50;46.40
42227;DHT22;27892;52.378;13.122;2022-09-30T10:25:30;20.70;46.10
42227;DHT22;27892;52.378;13.122;2022-09-30T10:28:19;21.00;46.10
42227;DHT22;27892;52.378;13.122;2022-09-30T10:30:52;21.40;45.90
42227;DHT22;27892;52.378;13.122;2022-09-30T10:33:34;21.90;45.30
42227;DHT22;27892;52.378;13.122;2022-09-30T10:36:08;22.30;43.10
42227;DHT22;27892;52.378;13.122;2022-09-30T10:38:36;22.50;41.40
42227;DHT22;27892;52.378;13.122;2022-09-30T10:41:12;22.60;41.70
42227;DHT22;27892;52.378;13.122;2022-09-30T10:43:50;22.90;43.20
42227;DHT22;27892;52.378;13.122;2022-09-30T10:46:30;23.50;44.20
42227;DHT22;27892;52.378;13.122;2022-09-30T10:48:58;23.80;40.80
42227;DHT22;27892;52.378;13.122;2022-09-30T10:51:29;24.00;39.00
42227;DHT22;27892;52.378;13.122;2022-09-30T10:54:01;23.90;39.20
42227;DHT22;27892;52.378;13.122;2022-09-30T10:59:08;23.80;38.90
42227;DHT22;27892;52.378;13.122;2022-09-30T11:01:48;23.90;39.70
42227;DHT22;27892;52.378;13.122;2022-09-30T11:04:24;23.90;39.30
42227;DHT22;27892;52.378;13.122;2022-09-30T11:06:58;23.90;40.30
42227;DHT22;27892;52.378;13.122;2022-09-30T11:09:39;24.10;40.60
42227;DHT22;27892;52.378;13.122;2022-09-30T11:12:24;24.20;37.90
42227;DHT22;27892;52.378;13.122;2022-09-30T11:17:48;24.50;38.30
42227;DHT22;27892;52.378;13.122;2022-09-30T11:20:35;24.50;38.10
42227;DHT22;27892;52.378;13.122;2022-09-30T11:23:21;24.20;39.50
42227;DHT22;27892;52.378;13.122;2022-09-30T11:26:11;24.00;38.10
42227;DHT22;27892;52.378;13.122;2022-09-30T11:29:04;23.40;37.40
42227;DHT22;27892;52.378;13.122;2022-09-30T11:39:47;23.80;40.00
42227;DHT22;27892;52.378;13.122;2022-09-30T11:47:47;24.90;37.60
42227;DHT22;27892;52.378;13.122;2022-09-30T11:50:32;25.30;36.30
42227;DHT22;27892;52.378;13.122;2022-09-30T11:58:04;24.40;37.70
42227;DHT22;27892;52.378;13.122;2022-09-30T12:00:33;24.50;37.50
42227;DHT22;27892;52.378;13.122;2022-09-30T12:05:56;24.30;36.50
42227;DHT22;27892;52.378;13.122;2022-09-30T12:08:29;23.70;38.00
42227;DHT22;27892;52.378;13.122;2022-09-30T12:11:13;23.10;39.00
42227;DHT22;27892;52.378;13.122;2022-09-30T12:13:54;23.10;40.90
42227;DHT22;27892;52.378;13.122;2022-09-30T12:16:27;23.50;39.60
42227;DHT22;27892;52.378;13.122;2022-09-30T12:19:04;23.80;37.90
42227;DHT22;27892;52.378;13.122;2022-09-30T12:21:46;23.90;37.30
42227;DHT22;27892;52.378;13.122;2022-09-30T12:24:38;24.20;37.30
42227;DHT22;27892;52.378;13.122;2022-09-30T12:27:10;24.50;36.40
42227;DHT22;27892;52.378;13.122;2022-09-30T12:29:40;24.20;35.60
42227;DHT22;27892;52.378;13.122;2022-09-30T12:49:12;22.30;40.90
42227;DHT22;27892;52.378;13.122;2022-09-30T12:51:43;22.00;41.80
42227;DHT22;27892;52.378;13.122;2022-09-30T12:54:18;21.80;43.60
42227;DHT22;27892;52.378;13.122;2022-09-30T12:56:53;21.70;44.50
42227;DHT22;27892;52.378;13.122;2022-09-30T12:59:25;21.90;45.10
42227;DHT22;27892;52.378;13.122;2022-09-30T13:01:53;22.30;44.60
42227;DHT22;27892;52.378;13.122;2022-09-30T13:04:37;22.80;43.70
42227;DHT22;27892;52.378;13.122;2022-09-30T13:07:10;23.30;41.90
42227;DHT22;27892;52.378;13.122;2022-09-30T13:09:55;23.60;38.10
42227;DHT22;27892;52.378;13.122;2022-09-30T13:12:39;23.70;36.40
42227;DHT22;27892;52.378;13.122;2022-09-30T13:15:39;23.80;37.20
42227;DHT22;27892;52.378;13.122;2022-09-30T13:21:15;24.50;35.20
42227;DHT22;27892;52.378;13.122;2022-09-30T13:23:56;24.70;33.90
42227;DHT22;27892;52.378;13.122;2022-09-30T13:28:52;24.40;33.30
42227;DHT22;27892;52.378;13.122;2022-09-30T13:31:23;24.10;33.50
42227;DHT22;27892;52.378;13.122;2022-09-30T13:39:24;23.00;34.50
42227;DHT22;27892;52.378;13.122;2022-09-30T13:42:00;22.70;34.70
42227;DHT22;27892;52.378;13.122;2022-09-30T13:44:34;22.40;34.70
42227;DHT22;27892;52.378;13.122;2022-09-30T13:47:15;22.20;35.70
42227;DHT22;27892;52.378;13.122;2022-09-30T13:49:46;22.00;36.00
42227;DHT22;27892;52.378;13.122;2022-09-30T13:52:33;22.00;38.80
42227;DHT22;27892;52.378;13.122;2022-09-30T13:55:10;22.40;36.20
42227;DHT22;27892;52.378;13.122;2022-09-30T14:11:41;21.80;39.30
42227;DHT22;27892;52.378;13.122;2022-09-30T14:17:04;21.70;39.60
42227;DHT22;27892;52.378;13.122;2022-09-30T14:19:56;21.60;38.90
42227;DHT22;27892;52.378;13.122;2022-09-30T14:22:27;21.60;38.70
42227;DHT22;27892;52.378;13.122;2022-09-30T14:24:55;21.50;38.90
42227;DHT22;27892;52.378;13.122;2022-09-30T14:30:27;21.30;38.90
42227;DHT22;27892;52.378;13.122;2022-09-30T14:33:23;21.20;40.20
42227;DHT22;27892;52.378;13.122;2022-09-30T14:35:52;21.10;39.30
42227;DHT22;27892;52.378;13.122;2022-09-30T14:38:20;21.00;39.40
42227;DHT22;27892;52.378;13.122;2022-09-30T14:40:53;21.00;39.40
42227;DHT22;27892;52.378;13.122;2022-09-30T14:43:24;21.00;40.20
42227;DHT22;27892;52.378;13.122;2022-09-30T14:49:02;20.90;40.40
42227;DHT22;27892;52.378;13.122;2022-09-30T14:51:54;20.90;40.40
42227;DHT22;27892;52.378;13.122;2022-09-30T14:54:31;20.90;40.20
42227;DHT22;27892;52.378;13.122;2022-09-30T14:57:01;21.00;41.30
42227;DHT22;27892;52.378;13.122;2022-09-30T14:59:32;21.00;40.60
42227;DHT22;27892;52.378;13.122;2022-09-30T15:02:07;21.00;40.80
42227;DHT22;27892;52.378;13.122;2022-09-30T15:04:38;21.00;41.00
42227;DHT22;27892;52.378;13.122;2022-09-30T15:07:09;20.90;41.00
42227;DHT22;27892;52.378;13.122;2022-09-30T15:09:41;20.90;41.50
42227;DHT22;27892;52.378;13.122;2022-09-30T15:12:20;20.80;40.90
42227;DHT22;27892;52.378;13.122;2022-09-30T15:17:19;20.60;40.80
42227;DHT22;27892;52.378;13.122;2022-09-30T15:19:55;20.60;42.00
42227;DHT22;27892;52.378;13.122;2022-09-30T15:22:27;20.50;43.30
42227;DHT22;27892;52.378;13.122;2022-09-30T15:24:54;20.30;43.30
42227;DHT22;27892;52.378;13.122;2022-09-30T15:27:31;20.20;42.00
42227;DHT22;27892;52.378;13.122;2022-09-30T15:30:20;20.10;42.90
42227;DHT22;27892;52.378;13.122;2022-09-30T15:33:16;20.00;44.20
42227;DHT22;27892;52.378;13.122;2022-09-30T15:36:17;19.80;45.90
42227;DHT22;27892;52.378;13.122;2022-09-30T15:38:50;19.60;46.60
42227;DHT22;27892;52.378;13.122;2022-09-30T15:41:38;19.40;47.00
42227;DHT22;27892;52.378;13.122;2022-09-30T15:47:08;19.20;46.70
42227;DHT22;27892;52.378;13.122;2022-09-30T15:49:49;19.10;47.00
42227;DHT22;27892;52.378;13.122;2022-09-30T15:52:38;19.00;47.40
42227;DHT22;27892;52.378;13.122;2022-09-30T16:00:52;18.90;47.90
42227;DHT22;27892;52.378;13.122;2022-09-30T16:03:28;18.80;48.10
42227;DHT22;27892;52.378;13.122;2022-09-30T16:06:16;18.70;48.50
42227;DHT22;27892;52.378;13.122;2022-09-30T16:09:02;18.60;49.20
42227;DHT22;27892;52.378;13.122;2022-09-30T16:11:39;18.40;49.60
42227;DHT22;27892;52.378;13.122;2022-09-30T16:14:09;18.30;50.20
42227;DHT22;27892;52.378;13.122;2022-09-30T16:16:37;18.20;50.60
42227;DHT22;27892;52.378;13.122;2022-09-30T16:19:04;18.10;51.00
42227;DHT22;27892;52.378;13.122;2022-09-30T16:21:44;18.00;51.30
42227;DHT22;27892;52.378;13.122;2022-09-30T16:29:49;17.50;52.50
42227;DHT22;27892;52.378;13.122;2022-09-30T16:32:20;17.40;52.80
42227;DHT22;27892;52.378;13.122;2022-09-30T16:34:48;17.30;53.10
42227;DHT22;27892;52.378;13.122;2022-09-30T16:37:23;17.20;53.50
42227;DHT22;27892;52.378;13.122;2022-09-30T16:40:13;17.10;53.60
42227;DHT22;27892;52.378;13.122;2022-09-30T16:42:44;16.90;53.90
42227;DHT22;27892;52.378;13.122;2022-09-30T16:45:20;16.90;53.90
42227;DHT22;27892;52.378;13.122;2022-09-30T16:47:48;16.70;54.40
42227;DHT22;27892;52.378;13.122;2022-09-30T16:52:58;16.50;55.00
42227;DHT22;27892;52.378;13.122;2022-09-30T16:55:24;16.40;55.30
42227;DHT22;27892;52.378;13.122;2022-09-30T16:57:51;16.20;55.50
42227;DHT22;27892;52.378;13.122;2022-09-30T17:00:17;16.10;55.70
42227;DHT22;27892;52.378;13.122;2022-09-30T17:02:45;16.00;56.10
42227;DHT22;27892;52.378;13.122;2022-09-30T17:05:16;15.90;56.40
42227;DHT22;27892;52.378;13.122;2022-09-30T17:07:50;15.80;56.70
42227;DHT22;27892;52.378;13.122;2022-09-30T17:10:22;15.70;56.90
42227;DHT22;27892;52.378;13.122;2022-09-30T17:12:49;15.60;57.00
42227;DHT22;27892;52.378;13.122;2022-09-30T17:15:17;15.60;57.00
42227;DHT22;27892;52.378;13.122;2022-09-30T17:17:42;15.50;57.20
42227;DHT22;27892;52.378;13.122;2022-09-30T17:20:09;15.40;57.40
42227;DHT22;27892;52.378;13.122;2022-09-30T17:22:34;15.30;57.60
42227;DHT22;27892;52.378;13.122;2022-09-30T17:25:00;15.30;57.90
42227;DHT22;27892;52.378;13.122;2022-09-30T17:27:26;15.30;57.90
42227;DHT22;27892;52.378;13.122;2022-09-30T17:29:52;15.20;57.80
42227;DHT22;27892;52.378;13.122;2022-09-30T17:32:17;15.10;57.90
42227;DHT22;27892;52.378;13.122;2022-09-30T17:34:43;15.00;58.00
42227;DHT22;27892;52.378;13.122;2022-09-30T17:37:09;15.00;58.10
42227;DHT22;27892;52.378;13.122;2022-09-30T17:39:39;14.90;58.20
42227;DHT22;27892;52.378;13.122;2022-09-30T17:42:09;14.80;58.30
42227;DHT22;27892;52.378;13.122;2022-09-30T17:44:54;14.70;58.40
42227;DHT22;27892;52.378;13.122;2022-09-30T17:47:20;14.60;58.50
42227;DHT22;27892;52.378;13.122;2022-09-30T17:49:46;14.50;58.80
42227;DHT22;27892;52.378;13.122;2022-09-30T17:52:12;14.40;58.80
42227;DHT22;27892;52.378;13.122;2022-09-30T17:54:40;14.40;59.00
42227;DHT22;27892;52.378;13.122;2022-09-30T17:57:06;14.30;59.10
42227;DHT22;27892;52.378;13.122;2022-09-30T17:59:33;14.30;59.30
42227;DHT22;27892;52.378;13.122;2022-09-30T18:01:58;14.20;59.50
42227;DHT22;27892;52.378;13.122;2022-09-30T18:04:24;14.20;59.60
42227;DHT22;27892;52.378;13.122;2022-09-30T18:06:54;14.20;59.50
42227;DHT22;27892;52.378;13.122;2022-09-30T18:09:20;14.10;59.50
42227;DHT22;27892;52.378;13.122;2022-09-30T18:11:46;14.00;59.50
42227;DHT22;27892;52.378;13.122;2022-09-30T18:14:12;13.90;59.50
42227;DHT22;27892;52.378;13.122;2022-09-30T18:16:38;13.90;59.70
42227;DHT22;27892;52.378;13.122;2022-09-30T18:19:05;13.80;59.70
42227;DHT22;27892;52.378;13.122;2022-09-30T18:21:38;13.80;60.00
42227;DHT22;27892;52.378;13.122;2022-09-30T18:24:05;13.80;60.00
42227;DHT22;27892;52.378;13.122;2022-09-30T18:26:31;13.70;60.40